Chualar, CA

8:41 AM PST on December 06, 2019 (GMT -0800)
Salinas Area Modelers | | Change Station
Active Advisory: Wind Advisory

Elev 92 ft 36.55 °N, 121.54 °W | Updated 2 seconds ago

Partly Cloudy
Partly Cloudy
58.3 °F
Feels Like 58.3 °F
N
14.76
Wind Variable Wind from ESE
Gusts 17.5 mph

Today
High -- | Low -- °F
--% Chance of Precip.
Yesterday
High -- | Low -- °F
Precip. -- in
Pressure 30.06 in
Visibility 10.0 miles
Clouds Clear
Dew Point 52 °F
Humidity 79%
Rainfall 0.00 in
Snow Depth Not available.
7:03 AM 4:50 PM
Waxing Gibbous, 72% visible
METAR KSNS 061553Z 15012KT 10SM CLR 13/10 A3004 RMK AO2 SLP180 T01280100
Pressure 30.06 in
Visibility 10.0 miles
Clouds Clear
Dew Point 52 °F
Humidity 79%
Rainfall 0.00 in
Snow Depth Not available.
7:03 AM 4:50 PM
Waxing Gibbous, 72% visible
METAR KSNS 061553Z 15012KT 10SM CLR 13/10 A3004 RMK AO2 SLP180 T01280100

Get Your Daily Forecast Email!

Thanks for signing up!

Be on the lookout for a verification email in your inbox.

You'll start receiving severe weather alerts in your inbox..

×

10-Day Weather Forecast

Almanac

Astronomy

Dec. 06, 2019 Rise Set
Actual Time
Civil Twilight
Nautical Twilight
Astronomical Twilight
Moon
Length of Visible Light
Length of Day
Tomorrow will be .
, % of the Moon is Illuminated

Today's Extremes

State Highs State Lows

Community

WunderPhotos

Category 6

Welcome to Category 6. This is the collective home for Weather Underground's featured writeups by Dr. Jeff Masters (right), Bob Henson (left), Chris Burt, and other regular contributors.

Nearby

Air Quality

  Air Quality AQ Index Pollutant
Not available.

Snow Depth

Station Depth Elevation

Earthquake Activity

City Distance Mag. Time & Date
Minimum magnitude displayed is 2.5.

Coastal Water Temperatures

Place Temperature

Stations

Nearby Weather Stations

Station Location Temp. Windchill Dew Point Humidity Wind Precip. Elev Updated Type
                   

Watches & Warnings

Wind Advisory
Issued: 3:28 AM PST Dec. 6, 2019 – National Weather Service

... Wind Advisory remains in effect from 10 am this morning to
7 am PST Saturday...

* what... south winds 15 to 30 mph with gusts up to 50 mph
expected.

* Where... the greater San Francisco Bay area, the central coast
and San Benito County. Although the entire forecast area is
included in the Wind Advisory, there will be areas that are
sheltered from the advisory level winds. These areas include
some of interior valleys and parts of the southern Santa Clara
Valley. The strongest winds are expected along the coast, in the
hills and focused over the North Bay as the front passes through
tonight.

* When... from 10 am Friday to 7 am PST Saturday.

* Impacts... gusty winds could blow around unsecured objects.
Downed trees and downed Powers lines may lead to travel hazard
or power outages.

Precautionary/preparedness actions...

Use extra caution when driving, especially if operating a high
profile vehicle. Secure outdoor objects.